createdAt,value
2023-05-10T00:00:06.094Z,3.17
2023-05-10T00:03:16.210Z,3.27
2023-05-10T00:06:19.395Z,3.50
2023-05-10T00:09:22.262Z,3.00
2023-05-10T00:12:26.552Z,3.47
2023-05-10T00:15:29.439Z,3.35
2023-05-10T00:18:32.397Z,3.70
2023-05-10T00:21:36.613Z,3.20
2023-05-10T00:24:39.578Z,3.47
2023-05-10T00:27:42.657Z,3.30
2023-05-10T00:30:45.937Z,2.95
2023-05-10T00:33:49.224Z,3.37
2023-05-10T00:36:52.390Z,3.05
2023-05-10T00:39:57.207Z,3.00
2023-05-10T00:43:01.613Z,3.33
2023-05-10T00:46:05.770Z,3.20
2023-05-10T00:49:11.448Z,3.20
2023-05-10T00:52:14.532Z,3.25
2023-05-10T00:55:18.102Z,3.20
2023-05-10T00:58:22.717Z,3.70
2023-05-10T01:01:33.314Z,3.10
2023-05-10T01:04:38.845Z,3.77
2023-05-10T01:07:45.144Z,3.47
2023-05-10T01:17:28.580Z,3.80
2023-05-10T01:20:48.050Z,3.40
2023-05-10T01:24:10.658Z,3.75
2023-05-10T01:27:33.751Z,3.45
2023-05-10T01:31:07.655Z,3.20
2023-05-10T01:34:23.293Z,3.35
2023-05-10T01:38:01.578Z,3.47
2023-05-10T01:41:27.361Z,3.28
2023-05-10T01:44:38.868Z,3.67
2023-05-10T01:47:55.762Z,3.40
2023-05-10T01:51:00.220Z,3.63
2023-05-10T01:54:06.166Z,3.45
2023-05-10T01:57:11.693Z,3.35
2023-05-10T02:00:17.463Z,3.80
2023-05-10T02:03:24.733Z,3.70
2023-05-10T02:06:29.822Z,3.50
2023-05-10T02:09:34.942Z,3.55
2023-05-10T02:12:43.118Z,3.73
2023-05-10T02:15:50.103Z,3.37
2023-05-10T02:18:55.424Z,3.50
2023-05-10T02:21:59.748Z,2.70
2023-05-10T02:25:05.065Z,3.17
2023-05-10T02:28:10.078Z,3.20
2023-05-10T02:31:14.682Z,3.95
2023-05-10T02:34:19.709Z,3.10
2023-05-10T02:37:23.911Z,3.97
2023-05-10T02:40:29.035Z,3.70
2023-05-10T02:43:38.039Z,3.60
2023-05-10T02:46:41.730Z,4.05
2023-05-10T02:49:45.111Z,3.58
2023-05-10T02:52:52.588Z,3.60
2023-05-10T02:55:59.058Z,3.90
2023-05-10T02:59:04.995Z,3.85
2023-05-10T03:02:16.135Z,3.63
2023-05-10T03:05:20.952Z,4.10
2023-05-10T03:08:26.489Z,3.83
2023-05-10T03:11:53.094Z,3.70
2023-05-10T03:15:26.562Z,4.20
2023-05-10T03:18:57.780Z,3.50
2023-05-10T03:22:08.035Z,4.00
2023-05-10T03:25:18.051Z,3.90
2023-05-10T03:28:23.999Z,3.78
2023-05-10T03:31:28.263Z,3.35
2023-05-10T03:34:34.239Z,3.80
2023-05-10T03:37:41.201Z,3.75
2023-05-10T03:40:46.831Z,3.47
2023-05-10T03:43:51.650Z,3.58
2023-05-10T03:46:56.608Z,3.83
2023-05-10T03:50:02.303Z,3.70
2023-05-10T03:53:07.321Z,3.47
2023-05-10T03:56:11.217Z,3.65
2023-05-10T03:59:18.390Z,3.57
2023-05-10T04:02:25.766Z,3.08
2023-05-10T04:05:32.120Z,4.00
2023-05-10T04:08:39.389Z,3.78
2023-05-10T04:11:49.591Z,3.63
2023-05-10T04:14:56.896Z,3.70
2023-05-10T04:18:00.339Z,3.85
2023-05-10T04:21:20.158Z,3.65
2023-05-10T04:24:28.190Z,3.50
2023-05-10T04:27:34.955Z,2.92
2023-05-10T04:30:41.867Z,3.80
2023-05-10T04:33:54.579Z,2.95
2023-05-10T04:37:03.504Z,3.43
2023-05-10T04:40:07.931Z,3.47
2023-05-10T04:43:12.438Z,3.58
2023-05-10T04:46:19.761Z,3.75
2023-05-10T04:49:26.186Z,3.17
2023-05-10T04:52:34.680Z,3.43
2023-05-10T04:55:41.418Z,3.33
2023-05-10T04:58:47.461Z,3.58
2023-05-10T05:01:52.343Z,3.60
2023-05-10T05:05:02.484Z,3.20
2023-05-10T05:08:27.844Z,3.63
2023-05-10T05:11:38.651Z,3.33
2023-05-10T05:14:46.370Z,3.88
2023-05-10T05:18:25.251Z,3.60
2023-05-10T05:21:48.715Z,3.97
2023-05-10T05:25:03.945Z,3.63
2023-05-10T05:28:10.097Z,2.85
2023-05-10T05:31:18.565Z,4.07
2023-05-10T05:34:23.535Z,3.23
2023-05-10T05:37:35.192Z,3.78
2023-05-10T05:40:39.665Z,3.75
2023-05-10T05:43:51.409Z,3.70
2023-05-10T05:47:02.942Z,3.60
2023-05-10T05:50:15.796Z,3.65
2023-05-10T05:53:27.619Z,3.22
2023-05-10T05:56:37.774Z,3.75
2023-05-10T05:59:47.287Z,3.50
2023-05-10T06:02:51.290Z,2.80
2023-05-10T06:05:59.854Z,3.38
2023-05-10T06:09:10.588Z,3.50
2023-05-10T06:12:23.144Z,3.83
2023-05-10T06:34:56.896Z,3.90
2023-05-10T06:38:14.820Z,3.78
2023-05-10T06:46:36.200Z,3.55
2023-05-10T06:50:25.254Z,3.60
2023-05-10T06:59:24.143Z,2.40
2023-05-10T07:03:34.813Z,3.15
2023-05-10T07:10:58.084Z,3.33
2023-05-10T07:14:22.520Z,3.37
2023-05-10T07:18:27.418Z,3.42
2023-05-10T07:21:50.884Z,3.63
2023-05-10T07:25:07.061Z,3.30
2023-05-10T07:28:19.017Z,3.47
2023-05-10T07:31:27.119Z,3.57
2023-05-10T07:34:39.557Z,3.70
2023-05-10T07:37:56.505Z,3.65
2023-05-10T07:41:13.759Z,3.60
2023-05-10T07:44:30.689Z,3.30
2023-05-10T07:51:15.913Z,3.53
2023-05-10T07:54:36.911Z,3.33
2023-05-10T07:57:49.636Z,3.50
2023-05-10T08:01:32.275Z,3.10
2023-05-10T08:04:55.919Z,3.40
2023-05-10T08:08:37.740Z,3.60
2023-05-10T08:11:44.856Z,3.95
2023-05-10T08:14:57.760Z,3.65
2023-05-10T08:21:47.649Z,3.70
2023-05-10T08:24:56.502Z,4.50
2023-05-10T08:28:21.869Z,3.20
2023-05-10T08:31:31.777Z,3.60
2023-05-10T08:34:37.206Z,3.40
2023-05-10T08:37:49.179Z,3.27
2023-05-10T08:49:13.116Z,2.83
2023-05-10T08:52:44.563Z,3.00
2023-05-10T08:57:11.218Z,3.63
2023-05-10T09:05:50.166Z,3.33
2023-05-10T09:13:14.174Z,3.15
2023-05-10T09:16:44.917Z,2.60
2023-05-10T09:19:59.103Z,2.38
2023-05-10T09:23:17.011Z,2.60
2023-05-10T09:26:24.509Z,2.20
2023-05-10T09:29:44.973Z,2.40
2023-05-10T09:32:56.484Z,2.97
2023-05-10T09:36:17.011Z,2.30
2023-05-10T09:39:39.120Z,2.33
2023-05-10T09:42:57.782Z,2.35
2023-05-10T09:46:12.836Z,2.20
2023-05-10T09:49:19.396Z,2.40
2023-05-10T09:52:57.950Z,2.60
2023-05-10T09:56:02.552Z,2.50
2023-05-10T09:59:17.201Z,2.53
2023-05-10T10:02:36.338Z,2.63
2023-05-10T10:05:56.625Z,2.23
2023-05-10T10:09:26.155Z,2.67
2023-05-10T10:16:31.829Z,2.30
2023-05-10T10:19:47.400Z,2.70
2023-05-10T10:23:18.000Z,1.97
2023-05-10T10:27:13.224Z,2.40
2023-05-10T10:30:53.968Z,2.03
2023-05-10T10:44:06.928Z,2.70
2023-05-10T10:48:27.279Z,2.30
2023-05-10T11:06:40.069Z,1.90
2023-05-10T11:14:09.428Z,2.17
2023-05-10T11:17:35.856Z,2.78
2023-05-10T11:21:03.268Z,2.28
2023-05-10T11:24:36.361Z,2.20
2023-05-10T11:28:06.663Z,1.90
2023-05-10T11:31:14.881Z,2.00
2023-05-10T11:39:00.663Z,2.20
2023-05-10T11:42:11.101Z,2.30
2023-05-10T11:45:18.367Z,2.17
2023-05-10T11:48:29.627Z,1.92
2023-05-10T11:51:47.745Z,1.73
2023-05-10T11:55:00.238Z,1.75
2023-05-10T11:58:30.295Z,1.80
2023-05-10T12:01:49.903Z,1.90
2023-05-10T12:10:11.688Z,1.80
2023-05-10T12:33:55.161Z,1.80
2023-05-10T12:43:17.680Z,1.50
2023-05-10T12:46:30.566Z,1.80
2023-05-10T12:49:48.084Z,2.20
2023-05-10T12:53:47.354Z,2.80
2023-05-10T12:57:26.300Z,1.60
2023-05-10T13:08:15.763Z,2.10
2023-05-10T13:11:25.108Z,1.63
2023-05-10T13:14:32.280Z,1.90
2023-05-10T13:17:40.442Z,1.70
2023-05-10T13:21:05.612Z,1.50
2023-05-10T13:24:10.571Z,1.50
2023-05-10T13:27:19.441Z,1.83
2023-05-10T13:30:29.979Z,1.58
2023-05-10T13:33:42.410Z,1.70
2023-05-10T13:36:50.550Z,1.60
2023-05-10T13:40:00.514Z,1.75
2023-05-10T13:43:13.190Z,1.80
2023-05-10T13:49:38.987Z,1.73
2023-05-10T13:52:50.292Z,1.60
2023-05-10T13:55:54.145Z,1.58
2023-05-10T13:59:09.226Z,1.70
2023-05-10T14:02:32.752Z,1.88
2023-05-10T14:05:48.412Z,1.80
2023-05-10T14:08:51.890Z,1.88
2023-05-10T14:11:57.257Z,1.70
2023-05-10T14:15:00.596Z,1.70
2023-05-10T14:18:04.722Z,1.40
2023-05-10T14:21:10.845Z,1.70
2023-05-10T14:24:14.110Z,1.60
2023-05-10T14:27:20.802Z,1.40
2023-05-10T14:30:24.192Z,1.33
2023-05-10T14:33:28.257Z,1.58
2023-05-10T14:36:32.084Z,1.60
2023-05-10T14:39:36.745Z,1.80
2023-05-10T14:42:40.272Z,1.70
2023-05-10T14:45:46.558Z,1.80
2023-05-10T14:48:58.156Z,1.27
2023-05-10T14:52:01.249Z,1.60
2023-05-10T14:55:04.920Z,1.65
2023-05-10T14:58:08.496Z,1.42
2023-05-10T15:01:12.438Z,1.30
2023-05-10T15:04:17.715Z,1.65
2023-05-10T15:07:22.324Z,1.50
2023-05-10T15:10:28.817Z,1.40
2023-05-10T15:13:32.576Z,1.70
2023-05-10T15:16:36.479Z,1.30
2023-05-10T15:19:45.173Z,1.48
2023-05-10T15:22:48.795Z,1.40
2023-05-10T15:25:56.933Z,1.30
2023-05-10T15:29:00.776Z,1.45
2023-05-10T15:32:04.329Z,1.30
2023-05-10T15:35:12.764Z,1.60
2023-05-10T15:38:17.462Z,1.50
2023-05-10T15:41:21.017Z,1.40
2023-05-10T15:44:30.001Z,1.52
2023-05-10T15:47:34.697Z,1.40
2023-05-10T15:50:38.251Z,1.40
2023-05-10T15:53:52.931Z,1.70
2023-05-10T15:57:04.772Z,1.70
2023-05-10T16:00:13.503Z,1.48
2023-05-10T16:03:16.991Z,1.50
2023-05-10T16:06:20.346Z,1.50
2023-05-10T16:09:23.900Z,2.00
2023-05-10T16:12:30.583Z,2.55
2023-05-10T16:15:34.371Z,1.90
2023-05-10T16:18:37.856Z,1.55
2023-05-10T16:21:41.352Z,1.65
2023-05-10T16:24:44.636Z,1.70
2023-05-10T16:27:48.272Z,1.33
2023-05-10T16:30:51.856Z,1.70
2023-05-10T16:33:54.766Z,1.65
2023-05-10T16:36:57.642Z,1.60
2023-05-10T16:40:00.636Z,1.80
2023-05-10T16:43:03.857Z,1.30
2023-05-10T16:46:13.284Z,1.70
2023-05-10T16:49:16.521Z,1.90
2023-05-10T16:52:19.759Z,1.90
2023-05-10T16:55:25.430Z,1.57
2023-05-10T16:58:29.091Z,1.60
2023-05-10T17:01:31.995Z,1.60
2023-05-10T17:04:37.247Z,1.40
2023-05-10T17:07:40.485Z,1.42
2023-05-10T17:10:43.503Z,1.63
2023-05-10T17:13:46.401Z,2.22
2023-05-10T17:16:49.876Z,6.40
2023-05-10T17:19:52.868Z,2.20
2023-05-10T17:22:55.728Z,1.90
2023-05-10T17:26:00.240Z,2.13
2023-05-10T17:29:07.520Z,2.10
2023-05-10T17:32:10.594Z,2.55
2023-05-10T17:35:14.560Z,2.00
2023-05-10T17:38:17.820Z,1.90
2023-05-10T17:41:21.943Z,1.80
2023-05-10T17:44:26.027Z,1.85
2023-05-10T17:47:29.223Z,2.00
2023-05-10T17:50:33.232Z,2.33
2023-05-10T17:53:36.260Z,2.47
2023-05-10T17:56:39.143Z,2.60
2023-05-10T17:59:42.409Z,2.97
2023-05-10T18:02:48.502Z,2.38
2023-05-10T18:05:51.599Z,2.50
2023-05-10T18:08:54.615Z,2.60
2023-05-10T18:11:58.200Z,2.30
2023-05-10T18:15:01.200Z,3.05
2023-05-10T18:18:05.633Z,4.80
2023-05-10T18:21:08.865Z,3.20
2023-05-10T18:24:11.755Z,3.33
2023-05-10T18:27:15.423Z,2.73
2023-05-10T18:30:18.706Z,2.60
2023-05-10T18:33:21.761Z,2.45
2023-05-10T18:36:24.845Z,2.40
2023-05-10T18:39:28.116Z,2.80
2023-05-10T18:42:32.621Z,6.90
2023-05-10T18:45:36.110Z,4.40
2023-05-10T18:48:39.290Z,5.10
2023-05-10T18:51:42.292Z,4.15
2023-05-10T18:54:45.676Z,2.67
2023-05-10T18:57:48.710Z,2.47
2023-05-10T19:00:53.101Z,2.85
2023-05-10T19:03:59.352Z,3.10
2023-05-10T19:07:03.665Z,2.22
2023-05-10T19:10:07.396Z,2.53
2023-05-10T19:13:11.290Z,2.30
2023-05-10T19:16:17.124Z,2.45
2023-05-10T19:19:23.576Z,2.00
2023-05-10T19:25:37.184Z,2.22
2023-05-10T19:28:40.994Z,2.10
2023-05-10T19:31:45.920Z,2.33
2023-05-10T19:34:50.740Z,2.30
2023-05-10T19:37:54.482Z,2.20
2023-05-10T19:41:01.195Z,2.20
2023-05-10T19:44:07.905Z,2.23
2023-05-10T19:47:15.292Z,2.10
2023-05-10T19:50:26.164Z,2.20
2023-05-10T19:53:32.582Z,2.00
2023-05-10T19:56:42.513Z,2.22
2023-05-10T20:00:04.973Z,2.50
2023-05-10T20:03:21.876Z,2.47
2023-05-10T20:06:38.472Z,2.40
2023-05-10T20:10:05.323Z,2.30
2023-05-10T20:13:43.393Z,2.22
2023-05-10T20:16:50.113Z,2.67
2023-05-10T20:20:02.113Z,2.30
2023-05-10T20:23:08.920Z,2.60
2023-05-10T20:26:12.901Z,2.80
2023-05-10T20:29:35.118Z,4.80
2023-05-10T20:32:40.844Z,5.20
2023-05-10T20:35:51.507Z,5.55
2023-05-10T20:38:59.236Z,5.15
2023-05-10T20:42:06.511Z,4.65
2023-05-10T20:45:13.160Z,5.32
2023-05-10T20:48:17.876Z,5.10
2023-05-10T20:51:22.480Z,4.70
2023-05-10T20:54:25.770Z,4.40
2023-05-10T20:57:29.159Z,4.68
2023-05-10T21:00:33.144Z,4.30
2023-05-10T21:03:36.725Z,3.90
2023-05-10T21:06:45.618Z,3.50
2023-05-10T21:09:48.899Z,3.30
2023-05-10T21:12:52.487Z,3.28
2023-05-10T21:15:56.086Z,3.35
2023-05-10T21:19:02.182Z,3.10
2023-05-10T21:22:05.529Z,3.00
2023-05-10T21:25:09.274Z,2.83
2023-05-10T21:28:12.610Z,2.70
2023-05-10T21:31:16.427Z,3.00
2023-05-10T21:34:19.737Z,2.57
2023-05-10T21:37:23.024Z,2.53
2023-05-10T21:40:25.955Z,2.55
2023-05-10T21:43:29.823Z,2.58
2023-05-10T21:46:33.413Z,2.40
2023-05-10T21:49:36.854Z,2.30
2023-05-10T21:52:40.039Z,2.53
2023-05-10T21:55:42.902Z,2.28
2023-05-10T21:58:46.077Z,2.20
2023-05-10T22:01:49.359Z,2.20
2023-05-10T22:04:52.632Z,2.13
2023-05-10T22:07:55.916Z,2.60
2023-05-10T22:10:59.198Z,2.58
2023-05-10T22:14:02.485Z,2.00
2023-05-10T22:17:05.839Z,2.53
2023-05-10T22:20:09.860Z,2.55
2023-05-10T22:23:13.931Z,2.60
2023-05-10T22:26:18.604Z,2.50
2023-05-10T22:29:27.882Z,2.30
2023-05-10T22:32:32.137Z,2.47
2023-05-10T22:35:38.125Z,2.25
2023-05-10T22:38:44.819Z,2.53
2023-05-10T22:41:48.568Z,2.37
2023-05-10T22:44:55.028Z,2.20
2023-05-10T22:48:01.014Z,2.33
2023-05-10T22:51:05.366Z,2.20
2023-05-10T22:54:08.972Z,2.10
2023-05-10T22:57:13.002Z,2.10
2023-05-10T23:00:17.677Z,2.25
2023-05-10T23:03:28.327Z,2.17
2023-05-10T23:06:33.336Z,2.00
2023-05-10T23:09:36.513Z,2.53
2023-05-10T23:12:39.378Z,2.58
2023-05-10T23:15:43.812Z,2.60
2023-05-10T23:18:47.005Z,2.50
2023-05-10T23:21:50.347Z,2.00
2023-05-10T23:24:53.516Z,2.30
2023-05-10T23:27:57.406Z,2.15
2023-05-10T23:31:00.791Z,1.90
2023-05-10T23:34:04.174Z,1.60
2023-05-10T23:37:06.951Z,1.83
2023-05-10T23:40:10.538Z,1.90
2023-05-10T23:43:16.269Z,2.20
2023-05-10T23:46:19.492Z,1.90
2023-05-10T23:49:22.521Z,1.77
2023-05-10T23:52:25.563Z,1.90
2023-05-10T23:56:12.369Z,1.77
2023-05-10T23:59:15.557Z,1.98
